This is the latest recevied weather packets stored in our database for station/object N0QWM. If no packets are shown the sender has not sent any weather packets the latest 10 day(s).
| Time | Temp. | Humidity | Pressure | Rain* | Wind** | Luminosity | Snow |
|---|---|---|---|---|---|---|---|
| 1788203218 | 35.56° C | 53% | 1023.9 hPa | 0 mm | - | 180 W/m² | - |
| 1788202917 | 35° C | 56% | 1024.1 hPa | 0 mm | - | 524 W/m² | - |
| 1788202612 | 33.89° C | 57% | 1023.9 hPa | 0 mm | - | 678 W/m² | - |
| 1788202308 | 34.44° C | 56% | 1024.2 hPa | 0 mm | - | 663 W/m² | - |
| 1788202008 | 35° C | 54% | 1024.1 hPa | 0 mm | - | 478 W/m² | - |
| 1788201704 | 35° C | 55% | 1024.1 hPa | 0 mm | - | 704 W/m² | - |
| 1788201403 | 34.44° C | 56% | 1024.2 hPa | 0 mm | - | 675 W/m² | - |
| 1788201102 | 33.89° C | 57% | 1024.5 hPa | 0 mm | - | 654 W/m² | - |
| 1788200801 | 32.78° C | 60% | 1024.5 hPa | 0 mm | - | 664 W/m² | - |
| 1788200498 | 32.22° C | 60% | 1024.6 hPa | 0 mm | - | 122 W/m² | - |
| 1788200198 | 32.78° C | 59% | 1024.8 hPa | 0 mm | - | 102 W/m² | - |
| 1788199898 | 33.33° C | 59% | 1024.7 hPa | 0 mm | - | 130 W/m² | - |
| 1788199593 | 34.44° C | 59% | 1024.8 hPa | 0 mm | - | 174 W/m² | - |
| 1788199287 | 35° C | 57% | 1024.9 hPa | 0 mm | - | 715 W/m² | - |
| 1788198982 | 34.44° C | 58% | 1025 hPa | 0 mm | - | 737 W/m² | - |
| 1788198694 | 33.89° C | 62% | 1024.9 hPa | 0 mm | - | 719 W/m² | - |
| 1788198374 | 33.33° C | 62% | 1025.2 hPa | 0 mm | - | 329 W/m² | - |
| 1788198074 | 32.78° C | 61% | 1025 hPa | 0 mm | - | 446 W/m² | - |
| 1788197773 | 33.33° C | 60% | 1024.9 hPa | 0 mm | - | 160 W/m² | - |
| 1788197469 | 32.22° C | 64% | 1025.3 hPa | 0 mm | - | 753 W/m² | - |
| 1788197169 | 32.22° C | 65% | 1025.1 hPa | 0 mm | - | 125 W/m² | - |
| 1788196863 | 32.22° C | 64% | 1025.3 hPa | 0 mm | - | 128 W/m² | - |
| 1788196559 | 32.22° C | 62% | 1025.5 hPa | 0 mm | - | 239 W/m² | - |
| 1788196256 | 31.67° C | 63% | 1025.3 hPa | 0 mm | - | 677 W/m² | - |
| 1788195952 | 31.67° C | 65% | 1025.3 hPa | 0 mm | - | 101 W/m² | - |
* Rain latest hour (hover to see other rain measurements)
** Current wind speed in m/s (hover to see current wind gust speed)